Weather at Lunenburg County Airport

Public forecast

Using degrees Fahrenheit for public forecast. Weather courtesy of forecast.io.

Current aviation weather report (METAR) for Lunenburg County Airport

Retrieved 2021/01/24 18:35 UTC (0 seconds ago):

KW31 241835Z AUTO 00000KT 10SM BKN090 04/M10 A3021 RMK AO1 T00431098

Closest aviation forecast (TAF) to Lunenburg County Airport

Closest forecast is Richmond International Airport, 52.7 nm (97.7 km) NE. Retrieved 2021/01/24 18:22 UTC (0 seconds ago):

TAF KRIC 241720Z 2418/2518 VRB05KT P6SM FEW100 FM242100 VRB03KT P6SM BKN100 FM242300 00000KT P6SM BKN060 FM251700 VRB03KT P6SM OVC045